createdAt,value
2019-02-23T00:00:29.151Z,92.60
2019-02-23T00:01:38.649Z,92.70
2019-02-23T00:02:44.770Z,92.90
2019-02-23T00:03:50.923Z,93.00
2019-02-23T00:04:57.157Z,93.00
2019-02-23T00:06:03.316Z,92.90
2019-02-23T00:07:10.487Z,92.90
2019-02-23T00:08:17.680Z,92.80
2019-02-23T00:09:23.945Z,92.70
2019-02-23T00:10:30.248Z,92.70
2019-02-23T00:11:36.425Z,92.70
2019-02-23T00:12:42.586Z,92.80
2019-02-23T00:13:48.708Z,92.90
2019-02-23T00:14:54.746Z,93.00
2019-02-23T00:16:02.086Z,92.90
2019-02-23T00:17:08.406Z,93.10
2019-02-23T00:18:15.766Z,93.00
2019-02-23T00:19:25.130Z,93.00
2019-02-23T00:20:30.357Z,93.30
2019-02-23T00:21:36.696Z,93.00
2019-02-23T00:22:42.845Z,93.60
2019-02-23T00:23:48.931Z,93.60
2019-02-23T00:24:55.054Z,93.60
2019-02-23T00:26:01.185Z,93.30
2019-02-23T00:27:07.533Z,93.30
2019-02-23T00:28:14.836Z,93.60
2019-02-23T00:29:21.242Z,93.80
2019-02-23T00:30:27.621Z,93.50
2019-02-23T00:31:34.379Z,93.30
2019-02-23T00:32:40.676Z,93.30
2019-02-23T00:33:46.857Z,93.10
2019-02-23T00:34:53.128Z,93.30
2019-02-23T00:35:59.199Z,93.40
2019-02-23T00:37:05.348Z,93.30
2019-02-23T00:38:11.426Z,93.10
2019-02-23T00:39:17.676Z,93.10
2019-02-23T00:40:23.768Z,93.20
2019-02-23T00:41:30.145Z,93.10
2019-02-23T00:42:36.507Z,93.30
2019-02-23T00:43:42.792Z,93.70
2019-02-23T00:44:49.042Z,93.50
2019-02-23T00:45:55.213Z,93.50
2019-02-23T00:47:01.361Z,93.60
2019-02-23T00:48:07.485Z,93.80
2019-02-23T00:49:15.046Z,94.10
2019-02-23T00:50:21.192Z,94.10
2019-02-23T00:51:27.555Z,94.20
2019-02-23T00:52:33.755Z,93.90
2019-02-23T00:53:40.604Z,93.70
2019-02-23T00:54:46.650Z,93.90
2019-02-23T00:55:53.116Z,93.90
2019-02-23T00:57:15.633Z,94.10
2019-02-23T01:02:19.996Z,94.30
2019-02-23T01:03:26.135Z,94.00
2019-02-23T01:04:32.141Z,94.00
2019-02-23T01:05:38.440Z,93.90
2019-02-23T01:06:44.555Z,93.90
2019-02-23T01:07:50.997Z,94.20
2019-02-23T01:08:57.066Z,94.20
2019-02-23T01:10:03.344Z,94.00
2019-02-23T01:11:10.574Z,93.90
2019-02-23T01:12:16.860Z,94.00
2019-02-23T01:13:22.970Z,94.00
2019-02-23T01:14:29.044Z,94.40
2019-02-23T01:15:35.269Z,94.20
2019-02-23T01:16:41.472Z,93.90
2019-02-23T01:17:48.011Z,94.00
2019-02-23T01:18:54.297Z,94.30
2019-02-23T01:20:00.565Z,94.40
2019-02-23T01:21:06.574Z,94.20
2019-02-23T01:22:12.846Z,94.30
2019-02-23T01:23:18.974Z,94.30
2019-02-23T01:24:25.152Z,94.30
2019-02-23T01:25:31.466Z,94.50
2019-02-23T01:26:37.716Z,94.80
2019-02-23T01:27:43.881Z,94.90
2019-02-23T01:28:50.148Z,95.30
2019-02-23T01:29:56.424Z,95.30
2019-02-23T01:31:02.697Z,95.50
2019-02-23T01:32:08.878Z,95.30
2019-02-23T01:33:14.762Z,95.20
2019-02-23T01:34:20.837Z,94.80
2019-02-23T01:35:27.230Z,95.00
2019-02-23T01:36:33.418Z,94.90
2019-02-23T01:37:39.566Z,94.90
2019-02-23T01:38:46.849Z,95.00
2019-02-23T01:39:53.120Z,95.00
2019-02-23T01:40:59.277Z,95.00
2019-02-23T01:42:05.528Z,95.20
2019-02-23T01:43:11.831Z,95.30
2019-02-23T01:44:18.102Z,95.50
2019-02-23T01:45:24.545Z,95.60
2019-02-23T01:46:30.842Z,96.20
2019-02-23T01:47:38.125Z,96.20
2019-02-23T01:48:44.221Z,96.10
2019-02-23T01:49:58.551Z,96.10
2019-02-23T01:50:58.287Z,96.10
2019-02-23T01:52:04.425Z,96.00
2019-02-23T01:53:10.659Z,96.00
2019-02-23T01:54:16.867Z,96.00
2019-02-23T01:55:23.016Z,95.90
2019-02-23T01:56:29.115Z,95.90
2019-02-23T01:57:35.256Z,96.00
2019-02-23T01:58:41.465Z,96.10
2019-02-23T01:59:47.614Z,96.00
2019-02-23T02:00:53.778Z,96.20
2019-02-23T02:02:00.057Z,96.30
2019-02-23T02:03:06.268Z,96.20
2019-02-23T02:04:12.406Z,96.50
2019-02-23T02:05:18.708Z,96.60
2019-02-23T02:06:24.989Z,96.70
2019-02-23T02:07:31.248Z,96.60
2019-02-23T02:08:37.784Z,96.60
2019-02-23T02:09:44.189Z,96.80
2019-02-23T02:10:50.416Z,97.00
2019-02-23T02:11:56.988Z,97.00
2019-02-23T02:13:03.023Z,96.80
2019-02-23T02:14:09.316Z,96.80
2019-02-23T02:15:16.064Z,96.50
2019-02-23T02:16:22.178Z,96.40
2019-02-23T02:17:28.248Z,96.40
2019-02-23T02:18:34.406Z,96.50
2019-02-23T02:19:41.763Z,96.50
2019-02-23T02:20:48.012Z,96.40
2019-02-23T02:21:54.109Z,96.40
2019-02-23T02:23:00.013Z,96.20
2019-02-23T02:24:06.259Z,96.20
2019-02-23T02:25:12.395Z,96.20
2019-02-23T02:26:18.565Z,96.40
2019-02-23T02:27:24.872Z,96.60
2019-02-23T02:28:30.988Z,96.40
2019-02-23T02:29:37.246Z,96.80
2019-02-23T02:30:43.542Z,97.30
2019-02-23T02:31:49.621Z,96.80
2019-02-23T02:32:55.781Z,96.70
2019-02-23T02:34:15.666Z,96.80
2019-02-23T02:35:21.829Z,96.80
2019-02-23T02:36:27.998Z,96.80
2019-02-23T02:37:34.190Z,96.70
2019-02-23T02:38:40.275Z,96.70
2019-02-23T02:39:46.436Z,96.80
2019-02-23T02:40:52.629Z,96.90
2019-02-23T02:41:58.725Z,96.80
2019-02-23T02:43:05.066Z,96.80
2019-02-23T02:44:11.243Z,96.70
2019-02-23T02:45:17.486Z,96.60
2019-02-23T02:46:23.680Z,97.10
2019-02-23T02:47:29.666Z,96.90
2019-02-23T02:48:35.709Z,96.80
2019-02-23T02:49:41.781Z,96.70
2019-02-23T02:50:48.045Z,97.00
2019-02-23T02:51:54.285Z,96.90
2019-02-23T02:53:00.445Z,97.00
2019-02-23T02:54:06.582Z,97.20
2019-02-23T02:55:12.644Z,97.20
2019-02-23T02:56:18.899Z,97.10
2019-02-23T02:57:25.114Z,97.20
2019-02-23T02:58:31.372Z,97.20
2019-02-23T02:59:37.358Z,97.30
2019-02-23T03:00:43.272Z,97.20
2019-02-23T03:01:49.539Z,97.50
2019-02-23T03:02:55.806Z,97.60
2019-02-23T03:04:02.275Z,97.50
2019-02-23T03:05:08.372Z,97.60
2019-02-23T03:06:14.734Z,97.50
2019-02-23T03:07:21.258Z,97.40
2019-02-23T03:08:27.351Z,97.30
2019-02-23T03:09:33.607Z,97.40
2019-02-23T03:10:39.845Z,97.70
2019-02-23T03:11:46.018Z,97.30
2019-02-23T03:12:52.075Z,97.30
2019-02-23T03:13:58.126Z,97.10
2019-02-23T03:15:04.292Z,97.00
2019-02-23T03:16:11.421Z,97.20
2019-02-23T03:17:17.587Z,97.20
2019-02-23T03:18:23.878Z,97.00
2019-02-23T03:19:30.100Z,97.20
2019-02-23T03:20:37.035Z,97.20
2019-02-23T03:21:43.512Z,97.10
2019-02-23T03:22:49.535Z,97.00
2019-02-23T03:23:55.850Z,97.00
2019-02-23T03:25:02.086Z,97.00
2019-02-23T03:26:08.126Z,97.30
2019-02-23T03:27:14.384Z,97.50
2019-02-23T03:28:20.421Z,97.20
2019-02-23T03:29:26.632Z,97.60
2019-02-23T03:30:32.911Z,96.90
2019-02-23T03:31:39.317Z,97.10
2019-02-23T03:32:45.575Z,97.00
2019-02-23T03:33:51.696Z,96.80
2019-02-23T03:34:57.805Z,97.10
2019-02-23T03:36:03.999Z,97.20
2019-02-23T03:37:11.156Z,97.20
2019-02-23T03:38:17.219Z,97.30
2019-02-23T03:39:23.463Z,97.40
2019-02-23T03:40:29.966Z,97.20
2019-02-23T03:41:36.081Z,97.00
2019-02-23T03:42:42.521Z,96.80
2019-02-23T03:43:48.688Z,96.80
2019-02-23T03:44:55.038Z,96.90
2019-02-23T03:46:01.227Z,96.80
2019-02-23T03:47:08.556Z,96.80
2019-02-23T03:48:14.927Z,96.80
2019-02-23T03:49:20.995Z,96.80
2019-02-23T03:50:27.125Z,97.00
2019-02-23T03:51:33.465Z,97.00
2019-02-23T03:52:40.078Z,96.90
2019-02-23T03:53:46.205Z,97.00
2019-02-23T03:54:52.362Z,97.00
2019-02-23T03:55:58.503Z,97.20
2019-02-23T03:57:04.871Z,97.10
2019-02-23T03:58:10.998Z,97.10
2019-02-23T03:59:17.192Z,97.20
2019-02-23T04:00:23.396Z,97.40
2019-02-23T04:01:29.648Z,97.60
2019-02-23T04:02:35.953Z,97.40
2019-02-23T04:03:42.146Z,97.00
2019-02-23T04:04:48.327Z,97.30
2019-02-23T04:05:54.656Z,97.40
2019-02-23T04:07:00.830Z,97.50
2019-02-23T04:08:07.144Z,97.50
2019-02-23T04:09:13.347Z,97.30
2019-02-23T04:10:19.477Z,97.20
2019-02-23T04:11:26.658Z,97.20
2019-02-23T04:12:33.010Z,97.30
2019-02-23T04:13:39.194Z,97.50
2019-02-23T04:14:45.769Z,97.50
2019-02-23T04:15:52.068Z,97.50
2019-02-23T04:16:58.140Z,97.50
2019-02-23T04:18:04.175Z,97.40
2019-02-23T04:19:11.024Z,97.40
2019-02-23T04:20:17.176Z,97.80
2019-02-23T04:21:23.655Z,97.70
2019-02-23T04:22:29.997Z,97.80
2019-02-23T04:23:36.250Z,97.80
2019-02-23T04:24:42.500Z,97.70
2019-02-23T04:25:48.704Z,97.80
2019-02-23T04:26:54.934Z,97.70
2019-02-23T04:28:00.973Z,97.60
2019-02-23T04:29:07.017Z,97.50
2019-02-23T04:30:13.416Z,97.40
2019-02-23T04:31:19.615Z,97.80
2019-02-23T04:32:25.805Z,97.50
2019-02-23T04:33:31.922Z,97.60
2019-02-23T04:34:38.060Z,97.70
2019-02-23T04:35:46.502Z,97.80
2019-02-23T04:36:52.258Z,97.90
2019-02-23T04:37:58.394Z,98.10
2019-02-23T04:39:05.038Z,97.80
2019-02-23T04:40:11.472Z,98.10
2019-02-23T04:41:17.652Z,98.20
2019-02-23T04:42:23.481Z,98.40
2019-02-23T04:43:29.821Z,98.40
2019-02-23T04:44:36.074Z,98.40
2019-02-23T04:45:42.328Z,98.10
2019-02-23T04:46:48.505Z,98.20
2019-02-23T04:47:54.596Z,98.30
2019-02-23T04:49:00.599Z,98.20
2019-02-23T04:50:06.776Z,98.00
2019-02-23T04:51:14.948Z,98.30
2019-02-23T04:52:22.327Z,98.30
2019-02-23T04:53:28.602Z,98.20
2019-02-23T04:54:39.176Z,98.90
2019-02-23T04:55:45.376Z,98.40
2019-02-23T04:56:51.650Z,98.30
2019-02-23T04:57:57.984Z,98.10
2019-02-23T04:59:04.552Z,98.10
2019-02-23T05:00:12.067Z,98.30
2019-02-23T05:01:18.271Z,98.40
2019-02-23T05:02:24.550Z,98.20
2019-02-23T05:03:30.695Z,98.30
2019-02-23T05:04:36.856Z,98.50
2019-02-23T05:05:43.134Z,98.40
2019-02-23T05:06:49.466Z,98.30
2019-02-23T05:07:55.795Z,98.30
2019-02-23T05:09:01.964Z,98.40
2019-02-23T05:10:09.776Z,98.20
2019-02-23T05:11:17.069Z,98.20
2019-02-23T05:12:23.375Z,98.10
2019-02-23T05:13:29.619Z,98.10
2019-02-23T05:14:35.887Z,98.20
2019-02-23T05:15:42.041Z,98.10
2019-02-23T05:16:48.340Z,98.30
2019-02-23T05:17:55.537Z,98.30
2019-02-23T05:19:02.266Z,98.40
2019-02-23T05:20:08.955Z,98.50
2019-02-23T05:21:25.762Z,98.50
2019-02-23T05:22:22.796Z,98.60
2019-02-23T05:23:28.897Z,98.50
2019-02-23T05:24:35.236Z,98.20
2019-02-23T05:25:41.470Z,98.10
2019-02-23T05:26:47.638Z,98.10
2019-02-23T05:27:54.168Z,98.20
2019-02-23T05:29:00.456Z,98.30
2019-02-23T05:30:07.103Z,98.40
2019-02-23T05:31:13.267Z,98.50
2019-02-23T05:32:19.399Z,98.70
2019-02-23T05:33:25.871Z,99.00
2019-02-23T05:34:32.024Z,99.10
2019-02-23T05:35:38.178Z,98.70
2019-02-23T05:36:44.346Z,98.70
2019-02-23T05:37:51.614Z,98.40
2019-02-23T05:38:57.826Z,98.60
2019-02-23T05:40:03.908Z,98.60
2019-02-23T05:41:10.028Z,98.70
2019-02-23T05:42:16.128Z,98.70
2019-02-23T05:43:22.236Z,99.20
2019-02-23T05:44:28.436Z,99.00
2019-02-23T05:45:34.663Z,99.20
2019-02-23T05:46:40.824Z,99.30
2019-02-23T05:47:46.957Z,99.50
2019-02-23T05:48:53.006Z,99.80
2019-02-23T05:49:59.247Z,99.60
2019-02-23T05:51:05.328Z,99.30
2019-02-23T05:52:11.649Z,99.20
2019-02-23T05:53:17.937Z,99.40
2019-02-23T05:54:24.059Z,99.40
2019-02-23T05:55:30.403Z,99.40
2019-02-23T05:56:36.404Z,99.40
2019-02-23T05:57:42.638Z,99.20
2019-02-23T05:58:48.892Z,99.00
2019-02-23T05:59:55.144Z,99.20
2019-02-23T06:01:01.445Z,99.40
2019-02-23T06:02:07.468Z,99.70
2019-02-23T06:03:13.690Z,99.70
2019-02-23T06:04:19.819Z,99.70
2019-02-23T06:05:25.989Z,99.60
2019-02-23T06:06:32.297Z,99.60
2019-02-23T06:07:38.645Z,99.80
2019-02-23T06:08:44.657Z,99.30
2019-02-23T06:09:50.503Z,99.40
2019-02-23T06:10:56.644Z,99.30
2019-02-23T06:12:02.721Z,99.40
2019-02-23T06:13:09.030Z,99.30
2019-02-23T06:14:15.287Z,99.10
2019-02-23T06:15:21.440Z,99.10
2019-02-23T06:16:27.707Z,99.20
2019-02-23T06:17:34.008Z,99.00
2019-02-23T06:18:40.208Z,99.30
2019-02-23T06:19:47.484Z,99.20
2019-02-23T06:20:53.575Z,99.10
2019-02-23T06:21:59.895Z,99.10
2019-02-23T06:23:06.527Z,99.10
2019-02-23T06:24:12.717Z,99.10
2019-02-23T06:25:18.844Z,99.10
2019-02-23T06:26:25.018Z,99.00
2019-02-23T06:27:31.053Z,98.70
2019-02-23T06:28:37.619Z,98.80
2019-02-23T06:29:43.860Z,98.60
2019-02-23T06:30:50.118Z,98.80
2019-02-23T06:31:56.367Z,99.30
2019-02-23T06:33:02.708Z,99.10
2019-02-23T06:34:16.069Z,99.20
2019-02-23T06:35:16.763Z,99.00
2019-02-23T06:36:22.916Z,98.70
2019-02-23T06:37:29.316Z,98.90
2019-02-23T06:38:42.431Z,99.00
2019-02-23T06:39:48.704Z,98.90
2019-02-23T06:40:54.978Z,98.60
2019-02-23T06:42:01.140Z,98.40
2019-02-23T06:43:07.315Z,98.40
2019-02-23T06:44:13.445Z,98.40
2019-02-23T06:45:19.651Z,98.30
2019-02-23T06:46:26.284Z,98.40
2019-02-23T06:47:32.522Z,98.30
2019-02-23T06:48:38.785Z,98.00
2019-02-23T06:49:45.107Z,97.90
2019-02-23T06:50:51.256Z,97.80
2019-02-23T06:52:04.266Z,97.50
2019-02-23T06:53:05.129Z,97.60
2019-02-23T06:54:13.190Z,97.60
2019-02-23T06:55:19.260Z,98.10
2019-02-23T06:56:25.615Z,97.60
2019-02-23T06:57:31.685Z,97.60
2019-02-23T06:58:38.010Z,97.90
2019-02-23T06:59:44.280Z,97.90
2019-02-23T07:00:50.533Z,97.70
2019-02-23T07:01:56.883Z,97.60
2019-02-23T07:03:03.023Z,97.70
2019-02-23T07:04:09.115Z,97.20
2019-02-23T07:05:15.313Z,96.70
2019-02-23T07:06:21.582Z,96.50
2019-02-23T07:07:27.831Z,96.50
2019-02-23T07:08:34.188Z,96.70
2019-02-23T07:09:40.438Z,96.70
2019-02-23T07:10:46.727Z,96.20
2019-02-23T07:11:52.955Z,96.40
2019-02-23T07:12:59.229Z,96.10
2019-02-23T07:14:05.260Z,95.70
2019-02-23T07:15:11.620Z,95.10
2019-02-23T07:16:17.748Z,95.10
2019-02-23T07:17:23.897Z,94.70
2019-02-23T07:18:30.137Z,94.30
2019-02-23T07:19:36.331Z,93.80
2019-02-23T07:20:44.517Z,93.60
2019-02-23T07:21:50.141Z,93.80
2019-02-23T07:22:56.220Z,92.70
2019-02-23T07:24:02.081Z,91.70
2019-02-23T07:25:08.614Z,91.60
2019-02-23T07:26:14.749Z,91.50
2019-02-23T07:27:22.015Z,91.50
2019-02-23T07:28:28.279Z,90.90
2019-02-23T07:29:34.600Z,90.50
2019-02-23T07:30:40.699Z,90.40
2019-02-23T07:31:46.899Z,90.30
2019-02-23T07:32:53.012Z,90.80
2019-02-23T07:33:59.156Z,91.20
2019-02-23T07:35:05.540Z,91.70
2019-02-23T07:36:11.737Z,92.00
2019-02-23T07:37:17.893Z,92.60
2019-02-23T07:38:24.060Z,92.40
2019-02-23T07:39:30.304Z,92.70
2019-02-23T07:40:36.615Z,92.50
2019-02-23T07:41:42.691Z,92.50
2019-02-23T07:42:48.862Z,92.30
2019-02-23T07:43:55.117Z,92.20
2019-02-23T07:45:01.561Z,92.00
2019-02-23T07:46:07.852Z,92.00
2019-02-23T07:47:13.994Z,92.00
2019-02-23T07:48:20.133Z,91.70
2019-02-23T07:49:26.591Z,91.70
2019-02-23T07:50:32.899Z,91.30
2019-02-23T07:51:39.081Z,91.40
2019-02-23T07:52:45.469Z,91.50
2019-02-23T07:53:51.508Z,90.90
2019-02-23T07:54:57.770Z,91.00
2019-02-23T07:56:04.126Z,91.20
2019-02-23T07:57:10.257Z,91.30
2019-02-23T07:58:16.419Z,91.60
2019-02-23T07:59:22.752Z,91.20
2019-02-23T08:00:28.929Z,91.50
2019-02-23T08:01:34.877Z,91.60
2019-02-23T08:02:41.026Z,91.70
2019-02-23T08:03:48.279Z,91.40
2019-02-23T08:04:54.475Z,91.30
2019-02-23T08:06:00.588Z,91.20
2019-02-23T08:07:06.796Z,91.10
2019-02-23T08:08:13.085Z,91.00
2019-02-23T08:09:20.847Z,91.20
2019-02-23T08:10:27.029Z,90.30
2019-02-23T08:11:33.288Z,90.60
2019-02-23T08:12:39.603Z,90.00
2019-02-23T08:13:45.698Z,89.30
2019-02-23T08:14:51.684Z,88.30
2019-02-23T08:15:57.914Z,87.50
2019-02-23T08:17:03.968Z,87.80
2019-02-23T08:18:10.104Z,87.70
2019-02-23T08:19:17.447Z,87.20
2019-02-23T08:20:23.762Z,87.70
2019-02-23T08:21:29.978Z,87.40
2019-02-23T08:22:37.567Z,87.20
2019-02-23T08:23:44.037Z,86.90
2019-02-23T08:24:50.355Z,86.20
2019-02-23T08:25:56.473Z,86.10
2019-02-23T08:27:02.684Z,86.40
2019-02-23T08:28:08.948Z,86.80
2019-02-23T08:29:15.287Z,87.00
2019-02-23T08:30:21.482Z,86.60
2019-02-23T08:31:27.622Z,86.40
2019-02-23T08:32:33.928Z,86.80
2019-02-23T08:33:40.093Z,85.80
2019-02-23T08:34:46.486Z,84.40
2019-02-23T08:35:52.711Z,85.60
2019-02-23T08:36:58.953Z,84.00
2019-02-23T08:38:05.238Z,82.40
2019-02-23T08:39:11.365Z,82.70
2019-02-23T08:40:17.483Z,81.90
2019-02-23T08:41:23.589Z,80.80
2019-02-23T08:42:29.654Z,80.80
2019-02-23T08:43:35.712Z,81.30
2019-02-23T08:44:41.923Z,80.80
2019-02-23T08:45:49.163Z,82.60
2019-02-23T08:46:55.413Z,83.00
2019-02-23T08:48:01.690Z,82.00
2019-02-23T08:49:09.314Z,82.60
2019-02-23T08:50:15.456Z,82.00
2019-02-23T08:51:21.593Z,81.60
2019-02-23T08:52:27.832Z,82.50
2019-02-23T08:53:34.083Z,82.10
2019-02-23T08:54:40.314Z,81.70
2019-02-23T08:55:46.452Z,81.00
2019-02-23T08:56:54.679Z,80.80
2019-02-23T08:58:00.363Z,80.70
2019-02-23T08:59:06.403Z,81.70
2019-02-23T09:00:13.563Z,83.10
2019-02-23T09:01:19.672Z,83.60
2019-02-23T09:02:26.010Z,82.40
2019-02-23T09:03:32.120Z,82.10
2019-02-23T09:04:37.994Z,82.40
2019-02-23T09:05:44.272Z,81.90
2019-02-23T09:06:50.457Z,81.00
2019-02-23T09:07:56.772Z,80.00
2019-02-23T09:09:02.955Z,80.50
2019-02-23T09:10:11.678Z,80.50
2019-02-23T09:11:17.980Z,80.00
2019-02-23T09:12:24.195Z,80.60
2019-02-23T09:13:30.474Z,80.70
2019-02-23T09:14:36.702Z,79.90
2019-02-23T09:15:42.834Z,78.90
2019-02-23T09:16:48.993Z,78.90
2019-02-23T09:17:55.121Z,79.40
2019-02-23T09:19:01.349Z,80.10
2019-02-23T09:20:07.780Z,79.60
2019-02-23T09:21:14.059Z,78.30
2019-02-23T09:22:20.246Z,77.70
2019-02-23T09:23:26.517Z,75.50
2019-02-23T09:24:32.853Z,74.00
2019-02-23T09:25:39.141Z,73.40
2019-02-23T09:26:45.651Z,74.20
2019-02-23T09:27:51.840Z,74.40
2019-02-23T09:28:58.146Z,74.20
2019-02-23T09:30:04.612Z,75.30
2019-02-23T09:31:10.786Z,75.80
2019-02-23T09:32:17.119Z,75.80
2019-02-23T09:33:23.593Z,76.20
2019-02-23T09:34:29.854Z,76.50
2019-02-23T09:35:36.091Z,74.80
2019-02-23T09:36:42.294Z,72.60
2019-02-23T09:37:48.437Z,71.40
2019-02-23T09:38:54.580Z,70.40
2019-02-23T09:40:00.715Z,70.80
2019-02-23T09:41:06.972Z,70.70
2019-02-23T09:42:13.379Z,71.40
2019-02-23T09:43:19.652Z,71.30
2019-02-23T09:44:26.045Z,71.10
2019-02-23T09:45:32.304Z,71.20
2019-02-23T09:46:38.618Z,69.00
2019-02-23T09:47:44.873Z,67.90
2019-02-23T09:48:51.102Z,67.90
2019-02-23T09:49:57.154Z,66.50
2019-02-23T09:51:03.279Z,65.90
2019-02-23T09:52:09.557Z,65.20
2019-02-23T09:53:15.806Z,64.00
2019-02-23T09:54:22.865Z,64.90
2019-02-23T09:55:29.082Z,64.70
2019-02-23T09:56:35.173Z,64.30
2019-02-23T09:57:41.334Z,62.20
2019-02-23T09:58:47.624Z,63.30
2019-02-23T09:59:53.870Z,62.80
2019-02-23T10:01:00.180Z,61.50
2019-02-23T10:02:06.434Z,61.10
2019-02-23T10:03:12.744Z,61.90
2019-02-23T10:04:19.003Z,62.30
2019-02-23T10:05:25.272Z,62.50
2019-02-23T10:06:31.508Z,63.50
2019-02-23T10:07:37.830Z,63.20
2019-02-23T10:08:44.142Z,63.20
2019-02-23T10:09:50.241Z,63.90
2019-02-23T10:10:57.673Z,64.80
2019-02-23T10:12:03.928Z,65.20
2019-02-23T10:13:10.265Z,64.70
2019-02-23T10:14:16.558Z,63.60
2019-02-23T10:15:22.773Z,62.50
2019-02-23T10:16:29.019Z,62.90
2019-02-23T10:17:35.285Z,61.50
2019-02-23T10:18:41.543Z,62.20
2019-02-23T10:19:47.745Z,62.60
2019-02-23T10:20:53.649Z,62.80
2019-02-23T10:22:00.013Z,62.60
2019-02-23T10:23:06.403Z,61.00
2019-02-23T10:24:12.674Z,59.60
2019-02-23T10:25:18.856Z,60.20
2019-02-23T10:26:26.637Z,60.10
2019-02-23T10:27:32.970Z,60.60
2019-02-23T10:28:39.254Z,60.80
2019-02-23T10:29:45.631Z,60.30
2019-02-23T10:30:52.132Z,60.30
2019-02-23T10:31:58.208Z,60.80
2019-02-23T10:33:04.767Z,60.30
2019-02-23T10:34:11.102Z,60.20
2019-02-23T10:35:17.892Z,59.70
2019-02-23T10:36:24.091Z,59.00
2019-02-23T10:37:30.194Z,58.70
2019-02-23T10:38:36.236Z,59.00
2019-02-23T10:39:42.369Z,59.10
2019-02-23T10:40:48.547Z,59.40
2019-02-23T10:41:54.735Z,59.50
2019-02-23T10:43:00.765Z,59.10
2019-02-23T10:44:08.056Z,58.90
2019-02-23T10:45:14.375Z,59.50
2019-02-23T10:46:20.895Z,59.10
2019-02-23T10:47:27.264Z,59.90
2019-02-23T10:48:33.550Z,61.00
2019-02-23T10:49:39.809Z,62.70
2019-02-23T10:50:46.095Z,63.10
2019-02-23T10:51:52.411Z,64.10
2019-02-23T10:52:58.597Z,64.10
2019-02-23T10:54:04.663Z,63.10
2019-02-23T10:55:11.323Z,63.20
2019-02-23T10:56:17.408Z,65.00
2019-02-23T10:57:23.601Z,65.00
2019-02-23T10:58:29.779Z,66.40
2019-02-23T10:59:35.883Z,66.00
2019-02-23T11:00:42.438Z,65.00
2019-02-23T11:01:48.688Z,65.00
2019-02-23T11:02:54.912Z,65.10
2019-02-23T11:04:01.752Z,64.10
2019-02-23T11:05:08.703Z,63.10
2019-02-23T11:06:14.947Z,63.40
2019-02-23T11:07:20.991Z,65.00
2019-02-23T11:08:27.431Z,63.90
2019-02-23T11:09:35.626Z,64.20
2019-02-23T11:10:41.955Z,62.00
2019-02-23T11:11:48.520Z,61.90
2019-02-23T11:12:55.716Z,61.60
2019-02-23T11:14:02.909Z,63.30
2019-02-23T11:15:10.274Z,63.50
2019-02-23T11:16:16.413Z,63.10
2019-02-23T11:17:23.600Z,62.00
2019-02-23T11:18:29.880Z,62.40
2019-02-23T11:19:36.127Z,63.70
2019-02-23T11:20:42.425Z,63.90
2019-02-23T11:21:48.644Z,62.20
2019-02-23T11:22:54.908Z,61.90
2019-02-23T11:24:01.131Z,62.60
2019-02-23T11:25:07.643Z,60.50
2019-02-23T11:26:14.117Z,59.80
2019-02-23T11:27:20.597Z,60.50
2019-02-23T11:28:26.847Z,60.20
2019-02-23T11:29:33.128Z,61.50
2019-02-23T11:30:39.543Z,58.70
2019-02-23T11:31:46.032Z,58.80
2019-02-23T11:32:52.188Z,59.30
2019-02-23T11:33:59.470Z,58.40
2019-02-23T11:35:05.500Z,56.40
2019-02-23T11:36:11.776Z,55.70
2019-02-23T11:37:18.049Z,54.00
2019-02-23T11:38:24.261Z,54.60
2019-02-23T11:39:30.372Z,53.80
2019-02-23T11:40:36.569Z,53.60
2019-02-23T11:41:42.638Z,53.30
2019-02-23T11:42:48.817Z,54.10
2019-02-23T11:43:54.864Z,54.40
2019-02-23T11:45:01.082Z,54.90
2019-02-23T11:46:08.398Z,56.00
2019-02-23T11:47:14.590Z,56.20
2019-02-23T11:48:21.003Z,57.10
2019-02-23T11:49:27.263Z,56.60
2019-02-23T11:50:33.443Z,56.50
2019-02-23T11:51:39.637Z,57.30
2019-02-23T11:52:46.165Z,56.00
2019-02-23T11:53:55.230Z,56.50
2019-02-23T11:55:00.602Z,56.50
2019-02-23T11:56:06.906Z,56.40
2019-02-23T11:57:13.154Z,58.00
2019-02-23T11:58:19.500Z,58.20
2019-02-23T11:59:25.861Z,58.60
2019-02-23T12:00:32.269Z,59.20
2019-02-23T12:01:38.483Z,58.30
2019-02-23T12:02:52.119Z,54.20
2019-02-23T12:03:52.588Z,52.30
2019-02-23T12:04:59.044Z,51.10
2019-02-23T12:06:05.636Z,51.10
2019-02-23T12:07:12.095Z,48.10
2019-02-23T12:08:18.242Z,46.10
2019-02-23T12:09:24.424Z,46.70
2019-02-23T12:10:30.804Z,45.20
2019-02-23T12:11:37.043Z,44.80
2019-02-23T12:12:43.104Z,44.00
2019-02-23T12:13:49.384Z,42.80
2019-02-23T12:14:55.767Z,40.50
2019-02-23T12:16:02.244Z,39.50
2019-02-23T12:17:08.432Z,39.10
2019-02-23T12:18:14.654Z,38.10
2019-02-23T12:19:21.036Z,38.90
2019-02-23T12:20:27.354Z,38.80
2019-02-23T12:21:33.889Z,38.30
2019-02-23T12:22:40.191Z,37.20
2019-02-23T12:23:46.571Z,38.00
2019-02-23T12:24:52.831Z,38.80
2019-02-23T12:25:59.015Z,40.40
2019-02-23T12:27:05.148Z,41.70
2019-02-23T12:28:11.425Z,42.60
2019-02-23T12:29:17.670Z,42.20
2019-02-23T12:30:23.856Z,42.70
2019-02-23T12:31:30.239Z,42.60
2019-02-23T12:32:36.558Z,42.50
2019-02-23T12:33:42.919Z,42.90
2019-02-23T12:34:49.163Z,43.20
2019-02-23T12:35:55.534Z,43.10
2019-02-23T12:37:01.957Z,41.60
2019-02-23T12:38:07.949Z,40.10
2019-02-23T12:39:14.191Z,40.40
2019-02-23T12:40:20.293Z,41.80
2019-02-23T12:41:26.856Z,42.90
2019-02-23T12:42:33.059Z,43.20
2019-02-23T12:43:39.369Z,43.40
2019-02-23T12:44:45.588Z,44.10
2019-02-23T12:45:52.114Z,44.60
2019-02-23T12:46:58.573Z,44.40
2019-02-23T12:48:04.860Z,44.00
2019-02-23T12:49:11.048Z,44.40
2019-02-23T12:50:17.285Z,46.10
2019-02-23T12:51:23.459Z,46.50
2019-02-23T12:52:29.844Z,47.40
2019-02-23T12:53:36.376Z,49.30
2019-02-23T12:54:42.913Z,48.80
2019-02-23T12:55:49.296Z,49.60
2019-02-23T12:56:55.646Z,50.10
2019-02-23T12:58:01.886Z,49.40
2019-02-23T12:59:08.412Z,48.60
2019-02-23T13:00:14.744Z,47.70
2019-02-23T13:01:21.154Z,48.00
2019-02-23T13:02:27.727Z,48.30
2019-02-23T13:03:34.310Z,49.40
2019-02-23T13:04:40.676Z,50.40
2019-02-23T13:05:47.184Z,52.20
2019-02-23T13:06:54.565Z,52.50
2019-02-23T13:08:00.901Z,52.20
2019-02-23T13:09:21.417Z,51.30
2019-02-23T13:10:27.718Z,51.00
2019-02-23T13:11:34.083Z,51.70
2019-02-23T13:13:29.062Z,51.70
2019-02-23T13:15:01.568Z,51.40
2019-02-23T13:16:39.584Z,51.60
2019-02-23T13:18:31.541Z,51.60
2019-02-23T13:20:36.980Z,51.20
2019-02-23T13:22:48.246Z,50.50
2019-02-23T13:24:47.435Z,49.90
2019-02-23T13:26:01.288Z,50.50
2019-02-23T13:28:06.709Z,49.20
2019-02-23T13:30:06.208Z,49.40
2019-02-23T13:32:08.303Z,50.70
2019-02-23T13:33:36.147Z,50.70
2019-02-23T13:35:21.317Z,50.40
2019-02-23T13:37:01.992Z,50.50
2019-02-23T13:38:43.039Z,51.10
2019-02-23T13:40:38.343Z,49.10
2019-02-23T13:42:25.362Z,46.40
2019-02-23T13:44:08.165Z,45.40
2019-02-23T13:45:57.938Z,47.70
2019-02-23T13:47:37.396Z,48.70
2019-02-23T13:49:18.962Z,47.80
2019-02-23T13:50:54.101Z,50.10
2019-02-23T13:52:39.038Z,49.50
2019-02-23T13:54:25.549Z,50.70
2019-02-23T13:56:21.543Z,49.60
2019-02-23T13:57:44.475Z,49.50
2019-02-23T13:59:30.097Z,49.80
2019-02-23T14:01:32.341Z,50.10
2019-02-23T14:03:21.576Z,51.00
2019-02-23T14:05:12.912Z,51.90
2019-02-23T14:07:21.316Z,53.00
2019-02-23T14:09:22.455Z,52.70
2019-02-23T14:11:01.572Z,53.30
2019-02-23T14:12:41.238Z,55.00
2019-02-23T14:14:24.440Z,54.60
2019-02-23T14:16:24.570Z,54.00
2019-02-23T14:18:14.526Z,54.90
2019-02-23T14:20:01.576Z,55.20
2019-02-23T14:21:47.793Z,55.00
2019-02-23T14:23:14.019Z,55.70
2019-02-23T14:24:35.499Z,55.80
2019-02-23T14:26:14.490Z,55.70
2019-02-23T14:28:03.443Z,54.80
2019-02-23T14:29:46.848Z,55.70
2019-02-23T14:31:17.213Z,56.80
2019-02-23T14:32:57.977Z,56.70
2019-02-23T14:34:57.456Z,57.00
2019-02-23T14:36:13.980Z,57.50
2019-02-23T14:37:59.842Z,58.00
2019-02-23T14:39:43.908Z,57.70
2019-02-23T14:41:46.219Z,59.00
2019-02-23T14:43:30.104Z,58.80
2019-02-23T14:45:02.664Z,58.40
2019-02-23T14:46:56.405Z,59.20
2019-02-23T14:48:23.658Z,59.20
2019-02-23T14:50:06.609Z,59.90
2019-02-23T14:51:54.800Z,60.00
2019-02-23T14:53:46.837Z,61.00
2019-02-23T14:55:35.678Z,62.30
2019-02-23T14:56:58.807Z,61.10
2019-02-23T14:58:37.368Z,61.20